Big Sandy, Montana
Current Conditions -  °F | °C
As of 8:53 PM on Tuesday 27 Jan 2015 (Local Time) from KHVR Reporting Station
Clear Clear  
Wind Chill: 37°   Ceiling: Unl
Heat Index: 44°   Visibility: 10mi
Dew Point: 34°   Wind: 15mph
Humidity: 68%   Direction: 220°SW
Pressure: 29.8"   Gusts: NA
Location:  48.18°N, 110.11°W
Report Text: KHVR 280353Z AUTO 22013KT 10SM CLR 07/01 A2980 RMK AO2 SLP101 T00670011
Loading
Personal Weather Stations






























Interactive Weather Map New forecast layout! Learn more

10-Day Weather Forecast

Advertisements
Track Severe Weather on mobile